METAR Data
IDs: Format: Raw Decoded Include TAF

Data at: 1502 UTC 27 Nov 2021

LFPV 271430Z AUTO 36009KT 9999 -SNRA BKN006/// OVC014/// ///CB 02/02 Q0990 TEMPO 3500 -DZRA BECMG BKN006 OVC012